createdAt,value
2019-02-06T00:00:57.469Z,-0.50
2019-02-06T00:03:26.460Z,-0.60
2019-02-06T00:05:55.702Z,-0.60
2019-02-06T00:08:25.057Z,-0.70
2019-02-06T00:11:03.193Z,-0.80
2019-02-06T00:13:32.384Z,-0.70
2019-02-06T00:16:02.818Z,-0.70
2019-02-06T00:18:34.791Z,-0.70
2019-02-06T00:21:03.961Z,-0.60
2019-02-06T00:23:32.924Z,-0.60
2019-02-06T00:26:05.009Z,-0.80
2019-02-06T00:28:34.542Z,-0.80
2019-02-06T00:31:03.553Z,-0.90
2019-02-06T00:33:32.417Z,-0.90
2019-02-06T00:36:01.482Z,-0.80
2019-02-06T00:38:33.338Z,-0.90
2019-02-06T00:41:05.110Z,-0.90
2019-02-06T00:43:37.323Z,-0.90
2019-02-06T00:46:11.644Z,-1.00
2019-02-06T00:48:40.594Z,-1.00
2019-02-06T00:51:09.805Z,-1.00
2019-02-06T00:53:41.883Z,-0.90
2019-02-06T00:56:10.876Z,-0.90
2019-02-06T00:58:39.785Z,-0.90
2019-02-06T01:01:11.803Z,-0.90
2019-02-06T01:03:40.738Z,-1.00
2019-02-06T01:06:09.825Z,-1.00
2019-02-06T01:08:39.040Z,-1.10
2019-02-06T01:11:08.011Z,-1.10
2019-02-06T01:13:36.918Z,-1.20
2019-02-06T01:16:05.926Z,-1.10
2019-02-06T01:18:41.006Z,-1.10
2019-02-06T01:21:10.002Z,-1.10
2019-02-06T01:23:39.019Z,-1.00
2019-02-06T01:26:09.729Z,-1.10
2019-02-06T01:28:38.863Z,-1.10
2019-02-06T01:31:15.041Z,-1.20
2019-02-06T01:33:44.047Z,-1.20
2019-02-06T01:36:12.940Z,-1.20
2019-02-06T01:38:42.252Z,-1.30
2019-02-06T01:41:17.286Z,-1.20
2019-02-06T01:43:52.546Z,-1.20
2019-02-06T01:46:24.459Z,-1.30
2019-02-06T01:48:54.380Z,-1.30
2019-02-06T01:51:23.680Z,-1.40
2019-02-06T01:53:58.366Z,-1.30
2019-02-06T01:56:28.452Z,-1.30
2019-02-06T01:59:00.444Z,-1.20
2019-02-06T02:01:32.593Z,-1.20
2019-02-06T02:04:04.431Z,-1.20
2019-02-06T02:06:33.507Z,-1.30
2019-02-06T02:09:10.421Z,-1.30
2019-02-06T02:11:42.375Z,-1.30
2019-02-06T02:14:11.376Z,-1.30
2019-02-06T02:16:40.589Z,-1.40
2019-02-06T02:19:09.497Z,-1.40
2019-02-06T02:21:39.945Z,-1.40
2019-02-06T02:24:11.706Z,-1.40
2019-02-06T02:26:40.628Z,-1.50
2019-02-06T02:29:09.576Z,-1.50
2019-02-06T02:31:38.848Z,-1.50
2019-02-06T02:34:10.603Z,-1.50
2019-02-06T02:36:48.303Z,-1.50
2019-02-06T02:39:17.180Z,-1.60
2019-02-06T02:41:46.104Z,-1.60
2019-02-06T02:44:15.128Z,-1.60
2019-02-06T02:46:46.847Z,-1.60
2019-02-06T02:49:15.690Z,-1.60
2019-02-06T02:51:48.192Z,-1.60
2019-02-06T02:54:17.382Z,-1.50
2019-02-06T02:56:46.692Z,-1.50
2019-02-06T02:59:16.056Z,-1.60
2019-02-06T03:02:01.170Z,-1.60
2019-02-06T03:04:43.344Z,-1.60
2019-02-06T03:07:12.240Z,-1.60
2019-02-06T03:09:41.413Z,-1.50
2019-02-06T03:12:10.396Z,-1.50
2019-02-06T03:14:39.377Z,-1.50
2019-02-06T03:17:14.278Z,-1.50
2019-02-06T03:19:46.565Z,-1.50
2019-02-06T03:22:15.849Z,-1.50
2019-02-06T03:24:44.864Z,-1.60
2019-02-06T03:27:17.081Z,-1.50
2019-02-06T03:29:49.124Z,-1.60
2019-02-06T03:32:18.099Z,-1.60
2019-02-06T03:34:59.236Z,-1.70
2019-02-06T03:37:31.025Z,-1.70
2019-02-06T03:39:59.976Z,-1.70
2019-02-06T03:42:28.998Z,-1.70
2019-02-06T03:44:57.978Z,-1.80
2019-02-06T03:47:26.836Z,-1.80
2019-02-06T03:49:57.374Z,-1.80
2019-02-06T03:52:26.365Z,-1.90
2019-02-06T03:54:55.589Z,-1.90
2019-02-06T03:57:26.448Z,-1.80
2019-02-06T03:59:58.521Z,-1.80
2019-02-06T04:02:33.279Z,-1.90
2019-02-06T04:05:02.198Z,-2.00
2019-02-06T04:07:33.986Z,-2.00
2019-02-06T04:10:05.782Z,-1.80
2019-02-06T04:12:34.709Z,-1.80
2019-02-06T04:15:05.121Z,-1.90
2019-02-06T04:17:46.234Z,-1.90
2019-02-06T04:20:15.230Z,-1.90
2019-02-06T04:22:44.411Z,-1.90
2019-02-06T04:25:14.036Z,-2.00
2019-02-06T04:27:47.135Z,-2.00
2019-02-06T04:30:16.317Z,-2.00
2019-02-06T04:32:45.292Z,-2.00
2019-02-06T04:35:14.453Z,-1.90
2019-02-06T04:37:46.690Z,-2.00
2019-02-06T04:40:17.378Z,-2.00
2019-02-06T04:42:47.104Z,-2.10
2019-02-06T04:45:16.725Z,-2.00
2019-02-06T04:47:45.727Z,-2.00
2019-02-06T04:50:14.909Z,-2.00
2019-02-06T04:52:43.758Z,-2.00
2019-02-06T04:55:14.031Z,-1.90
2019-02-06T04:57:46.057Z,-1.90
2019-02-06T05:00:24.414Z,-2.00
2019-02-06T05:02:59.233Z,-2.00
2019-02-06T05:05:28.410Z,-2.00
2019-02-06T05:08:03.440Z,-2.10
2019-02-06T05:10:35.442Z,-2.10
2019-02-06T05:13:04.484Z,-2.10
2019-02-06T05:15:36.244Z,-2.00
2019-02-06T05:18:05.216Z,-2.00
2019-02-06T05:20:37.956Z,-2.00
2019-02-06T05:23:08.206Z,-2.10
2019-02-06T05:25:37.210Z,-2.10
2019-02-06T05:28:09.418Z,-2.10
2019-02-06T05:30:38.325Z,-2.10
2019-02-06T05:33:10.026Z,-2.20
2019-02-06T05:35:38.958Z,-2.20
2019-02-06T05:38:08.451Z,-2.40
2019-02-06T05:40:37.408Z,-2.40
2019-02-06T05:43:06.437Z,-2.30
2019-02-06T05:45:50.684Z,-2.30
2019-02-06T05:48:19.562Z,-2.20
2019-02-06T05:50:48.713Z,-2.30
2019-02-06T05:53:17.639Z,-2.30
2019-02-06T05:55:49.957Z,-2.20
2019-02-06T05:58:19.190Z,-2.20
2019-02-06T06:00:49.364Z,-2.20
2019-02-06T06:03:18.436Z,-2.10
2019-02-06T06:05:50.805Z,-2.00
2019-02-06T06:08:28.907Z,-1.90
2019-02-06T06:10:58.013Z,-1.90
2019-02-06T06:13:26.989Z,-1.90
2019-02-06T06:15:56.066Z,-2.10
2019-02-06T06:18:28.114Z,-2.10
2019-02-06T06:21:00.364Z,-2.00
2019-02-06T06:23:30.936Z,-2.10
2019-02-06T06:25:59.964Z,-2.10
2019-02-06T06:28:29.169Z,-2.00
2019-02-06T06:30:58.668Z,-2.00
2019-02-06T06:33:27.688Z,-2.00
2019-02-06T06:35:59.979Z,-2.20
2019-02-06T06:38:37.967Z,-2.20
2019-02-06T06:41:07.030Z,-2.20
2019-02-06T06:43:35.956Z,-2.10
2019-02-06T06:46:05.177Z,-2.10
2019-02-06T06:48:34.264Z,-2.10
2019-02-06T06:51:03.212Z,-2.20
2019-02-06T06:53:32.387Z,-2.20
2019-02-06T06:56:01.352Z,-2.20
2019-02-06T06:58:30.306Z,-2.10
2019-02-06T07:00:59.248Z,-2.00
2019-02-06T07:03:28.421Z,-2.00
2019-02-06T07:05:57.312Z,-1.90
2019-02-06T07:08:26.338Z,-1.90
2019-02-06T07:10:57.050Z,-1.90
2019-02-06T07:13:26.024Z,-1.90
2019-02-06T07:16:00.356Z,-1.80
2019-02-06T07:18:28.749Z,-1.80
2019-02-06T07:21:01.620Z,-1.80
2019-02-06T07:23:30.707Z,-1.80
2019-02-06T07:25:59.623Z,-1.90
2019-02-06T07:28:28.553Z,-1.90
2019-02-06T07:31:00.357Z,-1.80
2019-02-06T07:33:29.374Z,-1.80
2019-02-06T07:35:58.330Z,-1.70
2019-02-06T07:38:29.038Z,-1.70
2019-02-06T07:41:03.867Z,-1.70
2019-02-06T07:43:35.599Z,-1.60
2019-02-06T07:46:14.077Z,-1.60
2019-02-06T07:48:44.774Z,-1.50
2019-02-06T07:51:16.793Z,-1.50
2019-02-06T07:53:46.073Z,-1.40
2019-02-06T07:56:23.951Z,-1.60
2019-02-06T07:58:52.831Z,-1.40
2019-02-06T08:01:21.850Z,-1.30
2019-02-06T08:03:50.857Z,-1.30
2019-02-06T08:06:19.824Z,-1.20
2019-02-06T08:08:48.800Z,-1.20
2019-02-06T08:11:17.762Z,-1.20
2019-02-06T08:13:51.132Z,-1.40
2019-02-06T08:16:29.097Z,-1.50
2019-02-06T08:18:58.167Z,-1.40
2019-02-06T08:21:27.154Z,-1.20
2019-02-06T08:23:59.119Z,-1.10
2019-02-06T08:26:37.270Z,-0.90
2019-02-06T08:29:06.299Z,-1.00
2019-02-06T08:31:38.060Z,-1.00
2019-02-06T08:34:10.358Z,-1.00
2019-02-06T08:36:43.171Z,-0.90
2019-02-06T08:39:12.231Z,-0.70
2019-02-06T08:41:44.777Z,-0.50
2019-02-06T08:44:14.047Z,-0.40
2019-02-06T08:46:43.362Z,-0.20
2019-02-06T08:49:13.513Z,-0.10
2019-02-06T08:51:42.937Z,0.00
2019-02-06T08:54:12.058Z,0.10
2019-02-06T08:56:41.026Z,0.10
2019-02-06T08:59:10.385Z,0.10
2019-02-06T09:01:39.427Z,0.20
2019-02-06T09:04:14.255Z,0.30
2019-02-06T09:06:43.250Z,0.30
2019-02-06T09:09:13.005Z,0.30
2019-02-06T09:11:41.967Z,0.30
2019-02-06T09:14:14.061Z,0.50
2019-02-06T09:16:50.486Z,0.40
2019-02-06T09:19:19.828Z,0.40
2019-02-06T09:21:48.852Z,0.40
2019-02-06T09:24:17.745Z,0.50
2019-02-06T09:26:46.657Z,0.60
2019-02-06T09:29:15.948Z,0.70
2019-02-06T09:31:44.833Z,0.70
2019-02-06T09:34:14.219Z,0.70
2019-02-06T09:36:43.146Z,0.80
2019-02-06T09:39:12.285Z,0.90
2019-02-06T09:41:47.250Z,0.90
2019-02-06T09:44:19.490Z,1.00
2019-02-06T09:46:51.539Z,0.90
2019-02-06T09:49:23.188Z,1.10
2019-02-06T09:51:52.176Z,1.10
2019-02-06T09:54:21.053Z,1.30
2019-02-06T09:56:50.651Z,1.40
2019-02-06T09:59:25.964Z,1.40
2019-02-06T10:01:55.502Z,1.60
2019-02-06T10:04:24.797Z,1.70
2019-02-06T10:06:59.569Z,1.60
2019-02-06T10:09:31.830Z,1.60
2019-02-06T10:12:01.038Z,1.80
2019-02-06T10:14:33.067Z,1.80
2019-02-06T10:17:05.097Z,2.10
2019-02-06T10:19:36.853Z,2.10
2019-02-06T10:22:06.130Z,2.20
2019-02-06T10:24:36.337Z,2.40
2019-02-06T10:27:08.244Z,2.60
2019-02-06T10:29:37.276Z,3.00
2019-02-06T10:32:06.350Z,3.20
2019-02-06T10:34:35.646Z,3.10
2019-02-06T10:37:04.851Z,3.30
2019-02-06T10:39:39.954Z,3.40
2019-02-06T10:42:09.243Z,3.60
2019-02-06T10:44:38.262Z,3.80
2019-02-06T10:47:10.337Z,3.50
2019-02-06T10:49:42.293Z,3.50
2019-02-06T10:52:11.294Z,3.10
2019-02-06T10:54:40.186Z,3.60
2019-02-06T10:57:10.268Z,3.70
2019-02-06T10:59:39.376Z,3.50
2019-02-06T11:02:09.388Z,3.40
2019-02-06T11:04:38.451Z,3.40
2019-02-06T11:07:08.225Z,3.60
2019-02-06T11:09:46.020Z,3.70
2019-02-06T11:12:08.408Z,3.70
2019-02-06T11:14:37.383Z,3.80
2019-02-06T11:17:06.394Z,4.00
2019-02-06T11:19:35.381Z,4.10
2019-02-06T11:22:04.380Z,3.80
2019-02-06T11:24:33.537Z,3.90
2019-02-06T11:27:05.277Z,4.20
2019-02-06T11:29:34.228Z,4.10
2019-02-06T11:32:06.529Z,4.30
2019-02-06T11:34:35.475Z,4.50
2019-02-06T11:37:10.545Z,4.50
2019-02-06T11:39:39.866Z,4.30
2019-02-06T11:42:11.623Z,4.40
2019-02-06T11:44:40.534Z,4.30
2019-02-06T11:47:09.973Z,4.30
2019-02-06T11:49:49.873Z,4.30
2019-02-06T11:52:19.007Z,4.30
2019-02-06T11:54:48.124Z,4.40
2019-02-06T11:57:20.006Z,5.00
2019-02-06T11:59:53.135Z,5.10
2019-02-06T12:02:24.834Z,5.30
2019-02-06T12:05:01.304Z,5.00
2019-02-06T12:07:33.125Z,5.40
2019-02-06T12:10:09.787Z,5.70
2019-02-06T12:12:37.254Z,6.20
2019-02-06T12:15:12.227Z,6.60
2019-02-06T12:17:42.589Z,6.60
2019-02-06T12:20:19.870Z,6.20
2019-02-06T12:22:56.657Z,6.50
2019-02-06T12:25:39.962Z,6.20
2019-02-06T12:28:09.768Z,6.40
2019-02-06T12:30:39.065Z,6.50
2019-02-06T12:33:10.865Z,6.60
2019-02-06T12:35:39.833Z,6.30
2019-02-06T12:38:08.814Z,6.30
2019-02-06T12:40:37.866Z,6.50
2019-02-06T12:43:10.494Z,6.70
2019-02-06T12:45:41.425Z,6.60
2019-02-06T12:48:13.581Z,6.80
2019-02-06T12:50:46.514Z,6.60
2019-02-06T12:53:19.591Z,6.90
2019-02-06T12:55:46.292Z,6.70
2019-02-06T12:58:15.618Z,6.70
2019-02-06T13:00:44.685Z,7.20
2019-02-06T13:03:16.672Z,7.80
2019-02-06T13:05:45.662Z,7.70
2019-02-06T13:08:17.199Z,8.00
2019-02-06T13:10:45.362Z,8.50
2019-02-06T13:13:14.741Z,9.20
2019-02-06T13:15:47.450Z,9.50
2019-02-06T13:18:16.508Z,10.20
2019-02-06T13:20:45.478Z,11.10
2019-02-06T13:23:14.396Z,10.90
2019-02-06T13:25:49.445Z,11.10
2019-02-06T13:28:21.505Z,11.80
2019-02-06T13:31:06.196Z,12.00
2019-02-06T13:33:35.455Z,12.70
2019-02-06T13:36:08.974Z,12.30
2019-02-06T13:38:38.217Z,12.20
2019-02-06T13:41:07.234Z,11.90
2019-02-06T13:43:42.491Z,11.30
2019-02-06T13:46:11.453Z,11.70
2019-02-06T13:48:43.418Z,10.60
2019-02-06T13:51:17.463Z,10.00
2019-02-06T13:53:46.440Z,10.70
2019-02-06T13:56:15.670Z,11.60
2019-02-06T13:58:47.881Z,12.00
2019-02-06T14:01:25.452Z,11.90
2019-02-06T14:03:47.572Z,10.20
2019-02-06T14:06:19.585Z,10.20
2019-02-06T14:08:49.032Z,9.80
2019-02-06T14:11:18.075Z,10.10
2019-02-06T14:13:53.286Z,10.90
2019-02-06T14:16:27.110Z,11.70
2019-02-06T14:18:55.914Z,11.80
2019-02-06T14:21:28.279Z,12.30
2019-02-06T14:24:34.165Z,12.00
2019-02-06T14:27:53.158Z,12.40
2019-02-06T14:31:18.202Z,12.80
2019-02-06T14:34:25.179Z,13.40
2019-02-06T14:37:34.489Z,13.60
2019-02-06T14:40:22.709Z,14.00
2019-02-06T14:43:28.501Z,13.10
2019-02-06T14:46:50.626Z,12.90
2019-02-06T14:49:30.673Z,12.10
2019-02-06T14:52:30.584Z,12.60
2019-02-06T14:55:28.115Z,12.00
2019-02-06T14:58:51.793Z,11.80
2019-02-06T15:02:09.747Z,11.70
2019-02-06T15:05:07.893Z,11.80
2019-02-06T15:08:03.622Z,11.50
2019-02-06T15:10:40.465Z,10.60
2019-02-06T15:13:53.851Z,10.30
2019-02-06T15:17:04.372Z,10.00
2019-02-06T15:20:09.554Z,9.70
2019-02-06T15:23:06.693Z,9.20
2019-02-06T15:26:25.472Z,8.30
2019-02-06T15:29:31.514Z,8.20
2019-02-06T15:32:53.565Z,7.80
2019-02-06T15:36:06.744Z,7.50
2019-02-06T15:39:19.769Z,6.90
2019-02-06T15:42:43.296Z,6.60
2019-02-06T15:45:21.962Z,6.10
2019-02-06T15:48:25.857Z,5.90
2019-02-06T15:51:09.912Z,5.60
2019-02-06T15:54:23.753Z,5.40
2019-02-06T15:57:27.465Z,4.90
2019-02-06T16:00:24.934Z,4.30
2019-02-06T16:03:23.848Z,4.30
2019-02-06T16:06:39.169Z,4.20
2019-02-06T16:09:32.562Z,3.90
2019-02-06T16:12:44.274Z,3.40
2019-02-06T16:16:03.095Z,3.10
2019-02-06T16:18:47.049Z,2.70
2019-02-06T16:21:54.958Z,2.80
2019-02-06T16:25:07.921Z,2.70
2019-02-06T16:28:07.960Z,2.50
2019-02-06T16:31:11.797Z,2.50
2019-02-06T16:34:10.568Z,2.50
2019-02-06T16:37:15.319Z,2.50
2019-02-06T16:40:26.179Z,2.30
2019-02-06T16:43:33.592Z,2.10
2019-02-06T16:47:01.659Z,2.20
2019-02-06T16:49:45.086Z,2.30
2019-02-06T16:52:39.265Z,2.30
2019-02-06T16:55:41.316Z,2.30
2019-02-06T16:58:56.445Z,2.20
2019-02-06T17:01:59.704Z,2.10
2019-02-06T17:04:35.429Z,2.00
2019-02-06T17:07:57.577Z,1.80
2019-02-06T17:11:11.554Z,1.70
2019-02-06T17:14:26.059Z,1.70
2019-02-06T17:17:35.122Z,1.50
2019-02-06T17:20:47.698Z,1.40
2019-02-06T17:23:38.038Z,1.20
2019-02-06T17:26:35.257Z,1.20
2019-02-06T17:29:39.962Z,1.20
2019-02-06T17:32:43.050Z,1.10
2019-02-06T17:35:27.385Z,1.10
2019-02-06T17:38:29.487Z,1.00
2019-02-06T17:41:26.132Z,1.00
2019-02-06T17:44:22.953Z,0.90
2019-02-06T17:47:16.842Z,0.80
2019-02-06T17:50:15.460Z,0.80
2019-02-06T17:53:31.877Z,0.70
2019-02-06T17:56:01.041Z,0.70
2019-02-06T17:58:36.538Z,0.60
2019-02-06T18:01:42.037Z,0.60
2019-02-06T18:04:22.747Z,0.50
2019-02-06T18:06:57.729Z,0.30
2019-02-06T18:09:29.861Z,0.20
2019-02-06T18:11:58.828Z,0.30
2019-02-06T18:14:31.020Z,0.30
2019-02-06T18:17:05.952Z,0.30
2019-02-06T18:19:39.333Z,0.20
2019-02-06T18:22:08.962Z,0.30
2019-02-06T18:24:38.298Z,0.20
2019-02-06T18:27:11.045Z,0.10
2019-02-06T18:29:40.465Z,0.10
2019-02-06T18:32:09.553Z,0.10
2019-02-06T18:34:39.344Z,0.00
2019-02-06T18:37:11.866Z,0.00
